sensor_id;sensor_type;location;lat;lon;timestamp;P1;P2;P0
78999;PMS7003;68406;53.914;27.416;2023-10-19T00:00:44;0.7;0.4;0.3
78999;PMS7003;68406;53.914;27.416;2023-10-19T00:06:24;0.6;0.3;0.2
78999;PMS7003;68406;53.914;27.416;2023-10-19T00:10:54;1.3;0.6;0.3
78999;PMS7003;68406;53.914;27.416;2023-10-19T00:16:24;0.9;0.6;0.4
78999;PMS7003;68406;53.914;27.416;2023-10-19T00:21:04;1.1;0.7;0.6
78999;PMS7003;68406;53.914;27.416;2023-10-19T00:25:44;1.1;0.7;0.5
78999;PMS7003;68406;53.914;27.416;2023-10-19T00:30:46;1;0.9;0.7
78999;PMS7003;68406;53.914;27.416;2023-10-19T00:35:58;1.5;1.1;0.9
78999;PMS7003;68406;53.914;27.416;2023-10-19T00:41:24;1.7;1.3;0.9
78999;PMS7003;68406;53.914;27.416;2023-10-19T00:46:15;1.2;1;0.8
78999;PMS7003;68406;53.914;27.416;2023-10-19T00:50:44;1.7;1.4;1.1
78999;PMS7003;68406;53.914;27.416;2023-10-19T00:55:50;1.6;1.3;1
78999;PMS7003;68406;53.914;27.416;2023-10-19T01:00:44;1.7;1.2;1
78999;PMS7003;68406;53.914;27.416;2023-10-19T01:06:22;1.8;1.4;1.1
78999;PMS7003;68406;53.914;27.416;2023-10-19T01:10:46;1.6;1.2;0.9
78999;PMS7003;68406;53.914;27.416;2023-10-19T01:15:50;2.2;1.2;0.9
78999;PMS7003;68406;53.914;27.416;2023-10-19T01:21:02;1.9;1.3;1
78999;PMS7003;68406;53.914;27.416;2023-10-19T01:26:10;1.7;1.5;1.2
78999;PMS7003;68406;53.914;27.416;2023-10-19T01:31:22;2.2;1.5;1.2
78999;PMS7003;68406;53.914;27.416;2023-10-19T01:35:54;2.3;1.5;1.1
78999;PMS7003;68406;53.914;27.416;2023-10-19T01:40:44;1.2;1.2;1
78999;PMS7003;68406;53.914;27.416;2023-10-19T01:45:44;2.1;1.6;1.1
78999;PMS7003;68406;53.914;27.416;2023-10-19T01:50:44;2.2;1.8;1.3
78999;PMS7003;68406;53.914;27.416;2023-10-19T01:56:24;2.9;1.8;1.4
78999;PMS7003;68406;53.914;27.416;2023-10-19T02:01:15;2.6;2;1.4
78999;PMS7003;68406;53.914;27.416;2023-10-19T02:05:56;2.2;1.9;1.6
78999;PMS7003;68406;53.914;27.416;2023-10-19T02:11:14;2.9;2.2;1.8
78999;PMS7003;68406;53.914;27.416;2023-10-19T02:15:46;3.3;2.2;1.8
78999;PMS7003;68406;53.914;27.416;2023-10-19T02:21:24;3.4;2.4;1.7
78999;PMS7003;68406;53.914;27.416;2023-10-19T02:25:54;3.7;3.1;2.3
78999;PMS7003;68406;53.914;27.416;2023-10-19T02:30:58;3.3;2.4;1.8
78999;PMS7003;68406;53.914;27.416;2023-10-19T02:35:56;3.5;2.6;1.9
78999;PMS7003;68406;53.914;27.416;2023-10-19T02:41:10;3.2;2.3;1.9
78999;PMS7003;68406;53.914;27.416;2023-10-19T02:46:22;3.1;2.4;1.8
78999;PMS7003;68406;53.914;27.416;2023-10-19T02:51:02;2.8;2.2;1.8
78999;PMS7003;68406;53.914;27.416;2023-10-19T02:55:44;3.6;2.7;2.2
78999;PMS7003;68406;53.914;27.416;2023-10-19T03:01:12;4.1;2.9;2
78999;PMS7003;68406;53.914;27.416;2023-10-19T03:06:22;3.2;2.7;1.8
78999;PMS7003;68406;53.914;27.416;2023-10-19T03:11:22;3.2;2.5;2.1
78999;PMS7003;68406;53.914;27.416;2023-10-19T03:15:54;4.3;3.2;2.4
78999;PMS7003;68406;53.914;27.416;2023-10-19T03:20:44;4.3;3.3;2.3
78999;PMS7003;68406;53.914;27.416;2023-10-19T03:26:00;3.8;3.4;2.4
78999;PMS7003;68406;53.914;27.416;2023-10-19T03:31:22;4.1;3.3;2.5
78999;PMS7003;68406;53.914;27.416;2023-10-19T03:36:10;4.8;3.5;2.9
78999;PMS7003;68406;53.914;27.416;2023-10-19T03:41:10;5.2;3.9;3
78999;PMS7003;68406;53.914;27.416;2023-10-19T03:46:24;4.1;3.3;2.4
78999;PMS7003;68406;53.914;27.416;2023-10-19T03:51:10;4.2;3.5;2.8
78999;PMS7003;68406;53.914;27.416;2023-10-19T03:56:24;4;3.1;2.4
78999;PMS7003;68406;53.914;27.416;2023-10-19T04:01:24;4.7;3.8;3.1
78999;PMS7003;68406;53.914;27.416;2023-10-19T04:05:50;4.9;4.1;3
78999;PMS7003;68406;53.914;27.416;2023-10-19T04:10:54;3.9;3.4;2.5
78999;PMS7003;68406;53.914;27.416;2023-10-19T04:16:08;4.5;3.2;2.4
78999;PMS7003;68406;53.914;27.416;2023-10-19T04:21:22;6.8;5.6;4
78999;PMS7003;68406;53.914;27.416;2023-10-19T04:26:08;5.4;4.4;3.3
78999;PMS7003;68406;53.914;27.416;2023-10-19T04:30:46;5;3.9;2.8
78999;PMS7003;68406;53.914;27.416;2023-10-19T04:35:56;5.3;4.4;3.4
78999;PMS7003;68406;53.914;27.416;2023-10-19T04:41:08;5.9;4.7;3.4
78999;PMS7003;68406;53.914;27.416;2023-10-19T04:46:22;5.7;4.7;3.8
78999;PMS7003;68406;53.914;27.416;2023-10-19T04:50:56;5.6;4.5;3.6
78999;PMS7003;68406;53.914;27.416;2023-10-19T04:55:45;5.3;4.6;3.6
78999;PMS7003;68406;53.914;27.416;2023-10-19T05:00:44;6.2;5.3;4
78999;PMS7003;68406;53.914;27.416;2023-10-19T05:06:22;5.8;5.1;3.9
78999;PMS7003;68406;53.914;27.416;2023-10-19T05:11:22;6.1;5.2;4.1
78999;PMS7003;68406;53.914;27.416;2023-10-19T05:16:08;6.5;5;3.9
78999;PMS7003;68406;53.914;27.416;2023-10-19T05:21:10;7.7;6.3;5.1
78999;PMS7003;68406;53.914;27.416;2023-10-19T05:26:03;7.8;6.3;4.9
78999;PMS7003;68406;53.914;27.416;2023-10-19T05:30:44;7.6;6.5;4.9
78999;PMS7003;68406;53.914;27.416;2023-10-19T05:36:20;7.5;6.4;5
78999;PMS7003;68406;53.914;27.416;2023-10-19T05:40:56;6.5;5.6;4.2
78999;PMS7003;68406;53.914;27.416;2023-10-19T05:45:52;6.8;5.5;4.2
78999;PMS7003;68406;53.914;27.416;2023-10-19T05:50:44;7.3;5.7;4.3
78999;PMS7003;68406;53.914;27.416;2023-10-19T05:56:08;7.7;5.8;4.4
78999;PMS7003;68406;53.914;27.416;2023-10-19T06:01:20;6.6;5.3;3.9
78999;PMS7003;68406;53.914;27.416;2023-10-19T06:05:56;6.3;4.9;3.8
78999;PMS7003;68406;53.914;27.416;2023-10-19T06:11:08;8.2;6.8;5
78999;PMS7003;68406;53.914;27.416;2023-10-19T06:16:00;6.6;5.6;4.2
78999;PMS7003;68406;53.914;27.416;2023-10-19T06:20:42;7.1;6;4.8
78999;PMS7003;68406;53.914;27.416;2023-10-19T06:26:18;9.9;7.7;5.9
78999;PMS7003;68406;53.914;27.416;2023-10-19T06:30:44;9.2;7.7;5.8
78999;PMS7003;68406;53.914;27.416;2023-10-19T06:35:42;9.7;7.7;5.7
78999;PMS7003;68406;53.914;27.416;2023-10-19T06:40:42;10.4;8.7;6.5
78999;PMS7003;68406;53.914;27.416;2023-10-19T06:45:44;9.9;7.9;5.8
78999;PMS7003;68406;53.914;27.416;2023-10-19T06:51:08;9.2;7.7;5.5
78999;PMS7003;68406;53.914;27.416;2023-10-19T06:56:06;8;7.2;5.2
78999;PMS7003;68406;53.914;27.416;2023-10-19T07:00:44;8.4;7.3;5.2
78999;PMS7003;68406;53.914;27.416;2023-10-19T07:05:52;7.4;6.1;4.6
78999;PMS7003;68406;53.914;27.416;2023-10-19T07:11:04;7.7;5.7;4.4
78999;PMS7003;68406;53.914;27.416;2023-10-19T07:16:18;7.3;5.8;4.6
78999;PMS7003;68406;53.914;27.416;2023-10-19T07:20:44;7.3;6;4.7
78999;PMS7003;68406;53.914;27.416;2023-10-19T07:25:42;12.6;10.9;7.6
78999;PMS7003;68406;53.914;27.416;2023-10-19T07:30:52;6.2;5.2;3.9
78999;PMS7003;68406;53.914;27.416;2023-10-19T07:36:20;5.3;4.9;3.6
78999;PMS7003;68406;53.914;27.416;2023-10-19T07:41:20;5.5;4.4;3.1
78999;PMS7003;68406;53.914;27.416;2023-10-19T07:46:08;5;3.8;2.9
78999;PMS7003;68406;53.914;27.416;2023-10-19T07:51:22;6.1;4.7;3.4
78999;PMS7003;68406;53.914;27.416;2023-10-19T07:55:58;4.9;4.1;3.3
78999;PMS7003;68406;53.914;27.416;2023-10-19T08:00:56;3.5;3.1;2.4
78999;PMS7003;68406;53.914;27.416;2023-10-19T08:06:20;3.8;3.2;2.6
78999;PMS7003;68406;53.914;27.416;2023-10-19T08:10:42;4;3.2;2.6
78999;PMS7003;68406;53.914;27.416;2023-10-19T08:15:46;3.4;2.5;1.9
78999;PMS7003;68406;53.914;27.416;2023-10-19T08:20:46;3.1;2.3;1.8
78999;PMS7003;68406;53.914;27.416;2023-10-19T08:26:06;2.7;2.2;1.7
78999;PMS7003;68406;53.914;27.416;2023-10-19T08:31:18;2.8;1.8;1.5
78999;PMS7003;68406;53.914;27.416;2023-10-19T08:36:00;3.3;2.5;2
78999;PMS7003;68406;53.914;27.416;2023-10-19T08:41:06;3;2.7;2.1
78999;PMS7003;68406;53.914;27.416;2023-10-19T08:46:00;4.3;3.6;2.9
78999;PMS7003;68406;53.914;27.416;2023-10-19T08:50:58;4.2;3.8;3.1
78999;PMS7003;68406;53.914;27.416;2023-10-19T08:56:20;3.6;2.7;2
78999;PMS7003;68406;53.914;27.416;2023-10-19T09:01:00;3.4;2.7;2.2
78999;PMS7003;68406;53.914;27.416;2023-10-19T09:05:43;3;2.5;2.1
78999;PMS7003;68406;53.914;27.416;2023-10-19T09:10:43;4.1;2.9;2.4
78999;PMS7003;68406;53.914;27.416;2023-10-19T09:16:06;4.2;3.2;2.5
78999;PMS7003;68406;53.914;27.416;2023-10-19T09:21:19;3;2.6;1.8
78999;PMS7003;68406;53.914;27.416;2023-10-19T09:26:06;3.4;2.8;2.1
78999;PMS7003;68406;53.914;27.416;2023-10-19T09:31:12;3.7;2.7;2.2
78999;PMS7003;68406;53.914;27.416;2023-10-19T09:35:59;3.3;2.8;2.3
78999;PMS7003;68406;53.914;27.416;2023-10-19T09:40:54;3.5;2.8;2.2
78999;PMS7003;68406;53.914;27.416;2023-10-19T09:46:21;3.6;3.2;2.7
78999;PMS7003;68406;53.914;27.416;2023-10-19T09:50:50;4.2;3.2;2.5
78999;PMS7003;68406;53.914;27.416;2023-10-19T09:55:48;4.9;4.2;3.3
78999;PMS7003;68406;53.914;27.416;2023-10-19T10:00:46;4.2;3.7;2.9
78999;PMS7003;68406;53.914;27.416;2023-10-19T10:06:02;4.3;3.6;3
78999;PMS7003;68406;53.914;27.416;2023-10-19T10:11:18;3.7;2.9;2.4
78999;PMS7003;68406;53.914;27.416;2023-10-19T10:15:42;2.9;2.6;2.2
78999;PMS7003;68406;53.914;27.416;2023-10-19T10:21:10;4;3.3;2.5
78999;PMS7003;68406;53.914;27.416;2023-10-19T10:25:58;3.1;2.6;1.9
78999;PMS7003;68406;53.914;27.416;2023-10-19T10:31:14;4.3;3.3;2.7
78999;PMS7003;68406;53.914;27.416;2023-10-19T10:36:18;4.2;3.2;2.7
78999;PMS7003;68406;53.914;27.416;2023-10-19T10:40:42;3.3;2.8;2.3
78999;PMS7003;68406;53.914;27.416;2023-10-19T10:45:50;3.6;3;2.4
78999;PMS7003;68406;53.914;27.416;2023-10-19T10:50:48;3;2.1;1.7
78999;PMS7003;68406;53.914;27.416;2023-10-19T10:55:59;3.6;2.9;2.2
78999;PMS7003;68406;53.914;27.416;2023-10-19T11:01:30;4;2.9;2.4
78999;PMS7003;68406;53.914;27.416;2023-10-19T11:05:42;4;3.1;2.4
78999;PMS7003;68406;53.914;27.416;2023-10-19T11:11:10;4.9;3.7;2.9
78999;PMS7003;68406;53.914;27.416;2023-10-19T11:15:48;3.3;2.9;2.5
78999;PMS7003;68406;53.914;27.416;2023-10-19T11:20:53;4.2;3.5;2.8
78999;PMS7003;68406;53.914;27.416;2023-10-19T11:26:15;3.6;2.8;2.4
78999;PMS7003;68406;53.914;27.416;2023-10-19T11:30:42;5.2;4.4;3.5
78999;PMS7003;68406;53.914;27.416;2023-10-19T11:35:58;5.3;4.4;3.5
78999;PMS7003;68406;53.914;27.416;2023-10-19T11:40:42;4.6;3.5;2.8
78999;PMS7003;68406;53.914;27.416;2023-10-19T11:46:06;3.9;3.5;2.9
78999;PMS7003;68406;53.914;27.416;2023-10-19T11:51:22;4.8;3.9;3.1
78999;PMS7003;68406;53.914;27.416;2023-10-19T11:55:44;3.9;3.2;2.7
78999;PMS7003;68406;53.914;27.416;2023-10-19T12:01:09;3.4;2.7;2
78999;PMS7003;68406;53.914;27.416;2023-10-19T12:06:00;3.9;3.4;2.8
78999;PMS7003;68406;53.914;27.416;2023-10-19T12:11:03;4.2;3.7;3
78999;PMS7003;68406;53.914;27.416;2023-10-19T12:15:58;4.3;3.7;2.8
78999;PMS7003;68406;53.914;27.416;2023-10-19T12:20:54;4.5;3.6;2.9
78999;PMS7003;68406;53.914;27.416;2023-10-19T12:25:44;3.9;3.2;2.6
78999;PMS7003;68406;53.914;27.416;2023-10-19T12:31:20;4.1;3.4;2.6
78999;PMS7003;68406;53.914;27.416;2023-10-19T12:35:50;4.1;3.2;2.4
78999;PMS7003;68406;53.914;27.416;2023-10-19T12:41:20;3.8;3.1;2.5
78999;PMS7003;68406;53.914;27.416;2023-10-19T12:46:22;3.6;3;2.5
78999;PMS7003;68406;53.914;27.416;2023-10-19T12:50:46;3.6;3.1;2.5
78999;PMS7003;68406;53.914;27.416;2023-10-19T12:56:10;4.1;3.5;2.8
78999;PMS7003;68406;53.914;27.416;2023-10-19T13:00:45;3.7;2.9;2.4
78999;PMS7003;68406;53.914;27.416;2023-10-19T13:06:10;4.7;3.2;2.5
78999;PMS7003;68406;53.914;27.416;2023-10-19T13:10:43;4.7;3.5;2.8
78999;PMS7003;68406;53.914;27.416;2023-10-19T13:15:43;3.9;3.5;2.8
78999;PMS7003;68406;53.914;27.416;2023-10-19T13:21:22;3.8;3.3;2.7
78999;PMS7003;68406;53.914;27.416;2023-10-19T13:25:54;3.3;2.5;1.9
78999;PMS7003;68406;53.914;27.416;2023-10-19T13:31:20;4;3.2;2.5
78999;PMS7003;68406;53.914;27.416;2023-10-19T13:36:20;4.7;3.6;2.9
78999;PMS7003;68406;53.914;27.416;2023-10-19T13:41:06;4.1;3.6;3
78999;PMS7003;68406;53.914;27.416;2023-10-19T13:46:20;4.2;4;3.2
78999;PMS7003;68406;53.914;27.416;2023-10-19T13:50:50;4.4;3.3;2.6
78999;PMS7003;68406;53.914;27.416;2023-10-19T13:56:09;4.5;3.9;3.2
78999;PMS7003;68406;53.914;27.416;2023-10-19T14:00:58;3.8;3.2;2.7
78999;PMS7003;68406;53.914;27.416;2023-10-19T14:05:52;3.7;3.1;2.5
78999;PMS7003;68406;53.914;27.416;2023-10-19T14:11:24;4.2;3.2;2.5
78999;PMS7003;68406;53.914;27.416;2023-10-19T14:15:42;4.2;3.3;2.6
78999;PMS7003;68406;53.914;27.416;2023-10-19T14:21:20;4.4;3.4;2.4
78999;PMS7003;68406;53.914;27.416;2023-10-19T14:26:24;4;3.1;2.3
78999;PMS7003;68406;53.914;27.416;2023-10-19T14:31:08;4.5;3.1;2.6
78999;PMS7003;68406;53.914;27.416;2023-10-19T14:36:08;4.5;3.4;2.7
78999;PMS7003;68406;53.914;27.416;2023-10-19T14:40:54;4.3;3.1;2.3
78999;PMS7003;68406;53.914;27.416;2023-10-19T14:46:08;4.5;3.3;2.4
78999;PMS7003;68406;53.914;27.416;2023-10-19T14:50:42;5.1;4;3.2
78999;PMS7003;68406;53.914;27.416;2023-10-19T14:55:43;5.6;4.1;3.2
78999;PMS7003;68406;53.914;27.416;2023-10-19T15:01:21;6.2;5.2;3.7
78999;PMS7003;68406;53.914;27.416;2023-10-19T15:06:06;5.1;4.3;3.4
78999;PMS7003;68406;53.914;27.416;2023-10-19T15:11:20;8.2;6.4;5
78999;PMS7003;68406;53.914;27.416;2023-10-19T15:16:22;7.7;6.6;5.2
78999;PMS7003;68406;53.914;27.416;2023-10-19T15:21:09;6.4;5.2;3.9
78999;PMS7003;68406;53.914;27.416;2023-10-19T15:26:08;5.9;4.7;3.8
78999;PMS7003;68406;53.914;27.416;2023-10-19T15:30:50;5.8;4.6;3.6
78999;PMS7003;68406;53.914;27.416;2023-10-19T15:36:11;5.9;4.9;3.9
78999;PMS7003;68406;53.914;27.416;2023-10-19T15:40:42;5.7;5.1;3.8
78999;PMS7003;68406;53.914;27.416;2023-10-19T15:45:42;7.3;5.6;4.1
78999;PMS7003;68406;53.914;27.416;2023-10-19T15:51:18;7.8;6.1;4.5
78999;PMS7003;68406;53.914;27.416;2023-10-19T15:55:42;6.4;6;4.8
78999;PMS7003;68406;53.914;27.416;2023-10-19T16:01:22;8;6.5;5
78999;PMS7003;68406;53.914;27.416;2023-10-19T16:06:22;7.7;6.5;5.2
78999;PMS7003;68406;53.914;27.416;2023-10-19T16:11:02;8.2;7.2;5.6
78999;PMS7003;68406;53.914;27.416;2023-10-19T16:16:08;7.5;6.2;4.9
78999;PMS7003;68406;53.914;27.416;2023-10-19T16:20:54;8;6.2;5
78999;PMS7003;68406;53.914;27.416;2023-10-19T16:26:08;7.7;6.8;5.4
78999;PMS7003;68406;53.914;27.416;2023-10-19T16:30:42;9.3;7.8;6.1
78999;PMS7003;68406;53.914;27.416;2023-10-19T16:35:42;9.8;8;6.2
78999;PMS7003;68406;53.914;27.416;2023-10-19T16:41:18;9;7.8;5.9
78999;PMS7003;68406;53.914;27.416;2023-10-19T16:46:06;9.5;8.5;6.4
78999;PMS7003;68406;53.914;27.416;2023-10-19T16:51:21;10.2;8.6;6.7
78999;PMS7003;68406;53.914;27.416;2023-10-19T16:55:57;8.7;7.8;6
78999;PMS7003;68406;53.914;27.416;2023-10-19T17:01:20;9.2;7.8;6
78999;PMS7003;68406;53.914;27.416;2023-10-19T17:06:20;8.4;7.6;5.8
78999;PMS7003;68406;53.914;27.416;2023-10-19T17:10:42;9;7.7;5.9
78999;PMS7003;68406;53.914;27.416;2023-10-19T17:15:42;7.5;6.3;5
78999;PMS7003;68406;53.914;27.416;2023-10-19T17:20:42;7.4;6.1;4.7
78999;PMS7003;68406;53.914;27.416;2023-10-19T17:25:42;7;5;3.9
78999;PMS7003;68406;53.914;27.416;2023-10-19T17:31:21;5.1;4.4;3.6
78999;PMS7003;68406;53.914;27.416;2023-10-19T17:35:42;4.9;4.3;3.4
78999;PMS7003;68406;53.914;27.416;2023-10-19T17:41:23;5.6;4.6;3.7
78999;PMS7003;68406;53.914;27.416;2023-10-19T17:46:14;7.1;5.8;4.5
78999;PMS7003;68406;53.914;27.416;2023-10-19T17:51:22;7;6.1;5
78999;PMS7003;68406;53.914;27.416;2023-10-19T17:56:08;7.8;6.8;5.1
78999;PMS7003;68406;53.914;27.416;2023-10-19T18:00:54;7.9;6.7;5.5
78999;PMS7003;68406;53.914;27.416;2023-10-19T18:05:48;8.6;7;5.3
78999;PMS7003;68406;53.914;27.416;2023-10-19T18:10:42;8.5;7.3;5.5
78999;PMS7003;68406;53.914;27.416;2023-10-19T18:15:42;8.8;7.6;5.8
78999;PMS7003;68406;53.914;27.416;2023-10-19T18:21:12;8.9;7.5;5.7
78999;PMS7003;68406;53.914;27.416;2023-10-19T18:25:58;9.2;8.3;6.4
78999;PMS7003;68406;53.914;27.416;2023-10-19T18:31:19;12.8;9.8;7.4
78999;PMS7003;68406;53.914;27.416;2023-10-19T18:36:12;10.2;9;6.7
78999;PMS7003;68406;53.914;27.416;2023-10-19T18:41:18;10.1;8.7;6.8
78999;PMS7003;68406;53.914;27.416;2023-10-19T18:46:20;11.1;9.5;7.4
78999;PMS7003;68406;53.914;27.416;2023-10-19T18:50:42;10.7;9.2;7
78999;PMS7003;68406;53.914;27.416;2023-10-19T18:55:48;9.6;8.2;6.1
78999;PMS7003;68406;53.914;27.416;2023-10-19T19:00:42;9.8;8.7;6.8
78999;PMS7003;68406;53.914;27.416;2023-10-19T19:05:43;10.3;8.5;6.5
78999;PMS7003;68406;53.914;27.416;2023-10-19T19:11:13;13;10;7.4
78999;PMS7003;68406;53.914;27.416;2023-10-19T19:15:42;12.9;10.8;8.3
78999;PMS7003;68406;53.914;27.416;2023-10-19T19:21:20;13.9;11.7;8.8
78999;PMS7003;68406;53.914;27.416;2023-10-19T19:26:10;15.1;12.3;9.3
78999;PMS7003;68406;53.914;27.416;2023-10-19T19:31:20;15.8;12.3;8.8
78999;PMS7003;68406;53.914;27.416;2023-10-19T19:36:20;15.5;13.2;9.9
78999;PMS7003;68406;53.914;27.416;2023-10-19T19:40:44;13.6;11.4;8.7
78999;PMS7003;68406;53.914;27.416;2023-10-19T19:45:42;12.5;10.7;8.2
78999;PMS7003;68406;53.914;27.416;2023-10-19T19:50:49;12.2;10.6;7.6
78999;PMS7003;68406;53.914;27.416;2023-10-19T19:55:42;13.2;11;8.5
78999;PMS7003;68406;53.914;27.416;2023-10-19T20:01:14;12.8;10.9;8.3
78999;PMS7003;68406;53.914;27.416;2023-10-19T20:06:00;13.4;10.9;8
78999;PMS7003;68406;53.914;27.416;2023-10-19T20:11:20;10.3;9.2;7.2
78999;PMS7003;68406;53.914;27.416;2023-10-19T20:16:12;10.8;9.7;7
78999;PMS7003;68406;53.914;27.416;2023-10-19T20:21:09;10.1;8.6;6.3
78999;PMS7003;68406;53.914;27.416;2023-10-19T20:26:21;10.9;9.2;6.8
78999;PMS7003;68406;53.914;27.416;2023-10-19T20:30:43;13;11.2;8.1
78999;PMS7003;68406;53.914;27.416;2023-10-19T20:35:43;12.9;11.2;8.2
78999;PMS7003;68406;53.914;27.416;2023-10-19T20:40:53;12.3;10.2;8
78999;PMS7003;68406;53.914;27.416;2023-10-19T20:45:49;10.4;8.7;6.3
78999;PMS7003;68406;53.914;27.416;2023-10-19T20:51:13;8;7;5.6
78999;PMS7003;68406;53.914;27.416;2023-10-19T20:55:47;9;7.4;5.6
78999;PMS7003;68406;53.914;27.416;2023-10-19T21:01:21;9.1;7.3;5.6
78999;PMS7003;68406;53.914;27.416;2023-10-19T21:06:13;9.9;8.2;6.2
78999;PMS7003;68406;53.914;27.416;2023-10-19T21:11:13;8.2;7.3;5.6
78999;PMS7003;68406;53.914;27.416;2023-10-19T21:16:21;8.1;6.9;5.5
78999;PMS7003;68406;53.914;27.416;2023-10-19T21:21:07;9.1;7.3;5.3
78999;PMS7003;68406;53.914;27.416;2023-10-19T21:25:43;7.9;6.7;5.4
78999;PMS7003;68406;53.914;27.416;2023-10-19T21:30:55;9;7.2;5.3
78999;PMS7003;68406;53.914;27.416;2023-10-19T21:35:43;8.8;7.3;5.6
78999;PMS7003;68406;53.914;27.416;2023-10-19T21:41:03;7.4;6.8;5
78999;PMS7003;68406;53.914;27.416;2023-10-19T21:45:43;7.1;6.3;4.9
78999;PMS7003;68406;53.914;27.416;2023-10-19T21:51:19;7.9;6.1;4.6
78999;PMS7003;68406;53.914;27.416;2023-10-19T21:56:11;6.9;6;4.6
78999;PMS7003;68406;53.914;27.416;2023-10-19T22:01:21;7.1;5.9;4.5
78999;PMS7003;68406;53.914;27.416;2023-10-19T22:06:21;6.7;5.9;4.5
78999;PMS7003;68406;53.914;27.416;2023-10-19T22:10:49;7.1;5.5;4.2
78999;PMS7003;68406;53.914;27.416;2023-10-19T22:15:51;8.2;6.1;5.1
78999;PMS7003;68406;53.914;27.416;2023-10-19T22:20:59;5.4;4.8;3.7
78999;PMS7003;68406;53.914;27.416;2023-10-19T22:25:44;6.1;5.4;4.3
78999;PMS7003;68406;53.914;27.416;2023-10-19T22:31:13;5.1;4.1;3.3
78999;PMS7003;68406;53.914;27.416;2023-10-19T22:36:09;6.4;5.5;4.3
78999;PMS7003;68406;53.914;27.416;2023-10-19T22:41:23;5.8;5;3.7
78999;PMS7003;68406;53.914;27.416;2023-10-19T22:46:14;6.6;5;3.8
78999;PMS7003;68406;53.914;27.416;2023-10-19T22:51:23;5.6;4.8;3.7
78999;PMS7003;68406;53.914;27.416;2023-10-19T22:56:21;5.4;4.5;3.5
78999;PMS7003;68406;53.914;27.416;2023-10-19T23:00:55;4.9;4;3
78999;PMS7003;68406;53.914;27.416;2023-10-19T23:05:43;4.8;3.9;3
78999;PMS7003;68406;53.914;27.416;2023-10-19T23:11:01;5.1;4;3.1
78999;PMS7003;68406;53.914;27.416;2023-10-19T23:15:45;5.3;4.3;3.2
78999;PMS7003;68406;53.914;27.416;2023-10-19T23:21:13;5.7;4.4;3.4
78999;PMS7003;68406;53.914;27.416;2023-10-19T23:26:01;4.9;4.2;3.3
78999;PMS7003;68406;53.914;27.416;2023-10-19T23:31:21;4.5;3.9;3.1
78999;PMS7003;68406;53.914;27.416;2023-10-19T23:36:11;5.3;4.2;3.3
78999;PMS7003;68406;53.914;27.416;2023-10-19T23:41:19;5.8;4.5;3.3
78999;PMS7003;68406;53.914;27.416;2023-10-19T23:46:09;5.8;4.6;3.6
78999;PMS7003;68406;53.914;27.416;2023-10-19T23:50:43;4.7;4.1;3.2
78999;PMS7003;68406;53.914;27.416;2023-10-19T23:55:45;5.3;4.2;3.4
